createdAt,value
2018-05-16T00:00:42.765Z,67.54
2018-05-16T00:01:42.831Z,67.25
2018-05-16T00:03:35.831Z,67.07
2018-05-16T00:04:35.891Z,67.00
2018-05-16T00:06:28.885Z,67.10
2018-05-16T00:07:28.952Z,67.07
2018-05-16T00:09:21.954Z,66.97
2018-05-16T00:10:22.013Z,67.48
2018-05-16T00:12:15.015Z,67.74
2018-05-16T00:13:15.074Z,67.83
2018-05-16T00:15:08.079Z,67.74
2018-05-16T00:16:08.146Z,68.02
2018-05-16T00:18:01.659Z,68.12
2018-05-16T00:19:01.716Z,69.27
2018-05-16T00:20:54.705Z,70.29
2018-05-16T00:21:54.769Z,70.78
2018-05-16T00:23:47.772Z,71.12
2018-05-16T00:24:47.828Z,70.36
2018-05-16T00:26:40.828Z,70.55
2018-05-16T00:27:40.884Z,71.03
2018-05-16T00:29:33.903Z,70.74
2018-05-16T00:30:33.966Z,71.03
2018-05-16T00:32:26.963Z,71.41
2018-05-16T00:33:27.031Z,71.31
2018-05-16T00:35:20.027Z,71.66
2018-05-16T00:36:20.087Z,71.03
2018-05-16T00:38:13.091Z,71.80
2018-05-16T00:39:13.147Z,71.86
2018-05-16T00:41:06.146Z,71.98
2018-05-16T00:42:06.213Z,71.95
2018-05-16T00:43:59.215Z,72.14
2018-05-16T00:44:59.264Z,71.37
2018-05-16T00:46:52.260Z,71.66
2018-05-16T00:47:52.323Z,71.76
2018-05-16T00:49:45.325Z,71.37
2018-05-16T00:50:45.387Z,71.86
2018-05-16T00:52:38.383Z,71.57
2018-05-16T00:53:38.447Z,71.66
2018-05-16T00:55:31.448Z,71.66
2018-05-16T00:56:31.507Z,71.37
2018-05-16T00:58:24.503Z,71.28
2018-05-16T00:59:24.557Z,71.25
2018-05-16T01:01:17.557Z,71.57
2018-05-16T01:02:17.623Z,71.63
2018-05-16T01:04:10.624Z,71.28
2018-05-16T01:05:10.686Z,71.28
2018-05-16T01:07:03.682Z,70.96
2018-05-16T01:08:03.743Z,71.44
2018-05-16T01:09:56.743Z,71.25
2018-05-16T01:10:56.804Z,71.05
2018-05-16T01:12:49.804Z,71.44
2018-05-16T01:13:49.866Z,71.15
2018-05-16T01:15:42.860Z,71.31
2018-05-16T01:16:42.919Z,71.72
2018-05-16T01:18:36.420Z,71.59
2018-05-16T01:19:36.484Z,71.21
2018-05-16T01:21:29.483Z,71.50
2018-05-16T01:22:29.548Z,71.21
2018-05-16T01:24:22.648Z,71.59
2018-05-16T01:25:22.599Z,71.02
2018-05-16T01:27:15.590Z,70.83
2018-05-16T01:28:15.656Z,71.21
2018-05-16T01:30:08.654Z,71.69
2018-05-16T01:31:08.712Z,71.69
2018-05-16T01:33:01.708Z,71.59
2018-05-16T01:34:01.780Z,71.31
2018-05-16T01:35:54.767Z,71.92
2018-05-16T01:36:54.821Z,71.69
2018-05-16T01:38:47.820Z,71.53
2018-05-16T01:39:47.884Z,71.63
2018-05-16T01:41:40.882Z,71.59
2018-05-16T01:42:40.940Z,71.72
2018-05-16T01:44:33.927Z,71.34
2018-05-16T01:45:33.995Z,71.78
2018-05-16T01:47:26.994Z,71.88
2018-05-16T01:48:27.046Z,71.31
2018-05-16T01:50:20.051Z,71.50
2018-05-16T01:52:33.062Z,72.13
2018-05-16T01:53:33.120Z,72.03
2018-05-16T01:55:26.131Z,72.13
2018-05-16T01:56:26.187Z,71.75
2018-05-16T01:58:19.178Z,72.03
2018-05-16T01:59:19.243Z,72.03
2018-05-16T02:01:12.243Z,72.07
2018-05-16T02:02:12.297Z,71.94
2018-05-16T02:04:05.299Z,71.94
2018-05-16T02:05:05.354Z,72.61
2018-05-16T02:06:58.357Z,72.13
2018-05-16T02:07:58.413Z,72.23
2018-05-16T02:09:51.407Z,73.19
2018-05-16T02:10:51.472Z,72.71
2018-05-16T02:12:44.472Z,73.47
2018-05-16T02:13:44.528Z,73.38
2018-05-16T02:15:37.525Z,73.95
2018-05-16T02:16:37.591Z,73.38
2018-05-16T02:18:31.099Z,73.28
2018-05-16T02:19:31.153Z,73.57
2018-05-16T02:21:24.178Z,73.57
2018-05-16T02:22:24.214Z,73.66
2018-05-16T02:24:17.203Z,74.05
2018-05-16T02:25:17.266Z,74.15
2018-05-16T02:27:10.266Z,73.76
2018-05-16T02:28:10.322Z,73.95
2018-05-16T02:30:03.319Z,74.20
2018-05-16T02:31:03.384Z,74.43
2018-05-16T02:32:56.390Z,74.01
2018-05-16T02:33:56.446Z,74.24
2018-05-16T02:35:49.441Z,74.40
2018-05-16T02:36:49.501Z,74.77
2018-05-16T02:38:42.500Z,74.33
2018-05-16T02:39:42.555Z,74.01
2018-05-16T02:41:35.562Z,75.20
2018-05-16T02:42:35.680Z,74.77
2018-05-16T02:44:28.608Z,74.77
2018-05-16T02:45:28.672Z,74.97
2018-05-16T02:47:21.693Z,75.64
2018-05-16T02:48:21.745Z,75.35
2018-05-16T02:50:14.740Z,75.45
2018-05-16T02:51:14.804Z,75.98
2018-05-16T02:53:07.802Z,76.27
2018-05-16T02:54:07.858Z,76.75
2018-05-16T02:56:00.854Z,77.04
2018-05-16T02:57:00.915Z,77.33
2018-05-16T02:58:53.911Z,77.23
2018-05-16T02:59:53.965Z,77.23
2018-05-16T03:01:46.968Z,77.33
2018-05-16T03:02:47.023Z,77.23
2018-05-16T03:04:40.042Z,77.61
2018-05-16T03:05:40.102Z,77.80
2018-05-16T03:07:33.090Z,78.38
2018-05-16T03:08:33.149Z,78.38
2018-05-16T03:10:26.142Z,78.86
2018-05-16T03:11:26.204Z,78.81
2018-05-16T03:13:19.201Z,78.53
2018-05-16T03:14:19.254Z,78.91
2018-05-16T03:16:12.242Z,79.39
2018-05-16T03:17:12.308Z,79.39
2018-05-16T03:19:05.308Z,79.96
2018-05-16T03:20:05.365Z,79.96
2018-05-16T03:21:58.369Z,79.77
2018-05-16T03:22:58.424Z,79.77
2018-05-16T03:24:51.430Z,79.39
2018-05-16T03:25:51.485Z,79.68
2018-05-16T03:27:44.499Z,79.58
2018-05-16T03:28:44.545Z,79.96
2018-05-16T03:30:37.538Z,80.35
2018-05-16T03:31:37.597Z,80.25
2018-05-16T03:33:30.601Z,80.35
2018-05-16T03:34:30.665Z,80.06
2018-05-16T03:36:23.647Z,80.44
2018-05-16T03:37:23.716Z,80.82
2018-05-16T03:39:16.709Z,80.25
2018-05-16T03:40:16.776Z,80.06
2018-05-16T03:42:09.754Z,80.25
2018-05-16T03:43:09.825Z,80.06
2018-05-16T03:45:02.826Z,80.63
2018-05-16T03:46:02.889Z,81.11
2018-05-16T03:47:55.869Z,81.74
2018-05-16T03:48:55.932Z,81.40
2018-05-16T03:50:48.933Z,81.49
2018-05-16T03:51:48.988Z,81.30
2018-05-16T03:53:41.988Z,81.49
2018-05-16T03:54:42.041Z,81.59
2018-05-16T03:56:35.030Z,81.21
2018-05-16T03:57:35.092Z,81.21
2018-05-16T03:59:28.089Z,81.26
2018-05-16T04:00:28.143Z,81.26
2018-05-16T04:02:21.205Z,81.84
2018-05-16T04:03:21.196Z,81.78
2018-05-16T04:05:14.200Z,81.65
2018-05-16T04:06:14.244Z,81.88
2018-05-16T04:08:07.240Z,81.16
2018-05-16T04:09:07.307Z,82.12
2018-05-16T04:11:00.311Z,82.41
2018-05-16T04:12:00.368Z,82.41
2018-05-16T04:13:53.359Z,82.60
2018-05-16T04:14:53.424Z,82.41
2018-05-16T04:16:46.419Z,82.51
2018-05-16T04:17:46.476Z,82.41
2018-05-16T04:19:39.471Z,82.79
2018-05-16T04:20:39.535Z,82.89
2018-05-16T04:22:32.536Z,82.60
2018-05-16T04:23:32.594Z,82.31
2018-05-16T04:25:25.595Z,82.12
2018-05-16T04:26:25.653Z,82.41
2018-05-16T04:28:18.642Z,82.51
2018-05-16T04:29:18.705Z,83.22
2018-05-16T04:31:11.708Z,82.64
2018-05-16T04:32:11.767Z,82.93
2018-05-16T04:34:04.763Z,82.26
2018-05-16T04:35:04.823Z,81.78
2018-05-16T04:36:57.822Z,81.44
2018-05-16T04:37:57.880Z,81.34
2018-05-16T04:39:50.868Z,81.02
2018-05-16T04:40:50.933Z,81.02
2018-05-16T04:42:43.933Z,81.15
2018-05-16T04:43:43.992Z,81.15
2018-05-16T04:45:36.989Z,80.87
2018-05-16T04:46:37.046Z,80.77
2018-05-16T04:48:30.039Z,80.38
2018-05-16T04:49:30.103Z,80.58
2018-05-16T04:51:23.104Z,80.48
2018-05-16T04:52:23.158Z,80.96
2018-05-16T04:54:16.157Z,80.29
2018-05-16T04:55:16.223Z,80.87
2018-05-16T04:57:09.223Z,80.87
2018-05-16T04:58:09.279Z,81.15
2018-05-16T05:00:02.271Z,80.58
2018-05-16T05:01:02.433Z,81.15
2018-05-16T05:02:55.333Z,80.77
2018-05-16T05:03:55.388Z,81.25
2018-05-16T05:05:48.391Z,80.96
2018-05-16T05:06:48.449Z,80.96
2018-05-16T05:08:41.458Z,80.00
2018-05-16T05:09:41.533Z,80.77
2018-05-16T05:11:34.510Z,80.67
2018-05-16T05:12:34.566Z,80.52
2018-05-16T05:14:27.561Z,80.33
2018-05-16T05:15:27.618Z,80.19
2018-05-16T05:17:20.619Z,80.24
2018-05-16T05:18:20.696Z,80.24
2018-05-16T05:20:13.663Z,79.66
2018-05-16T05:21:13.728Z,79.66
2018-05-16T05:23:06.739Z,79.08
2018-05-16T05:24:06.896Z,79.18
2018-05-16T05:25:59.783Z,79.08
2018-05-16T05:26:59.845Z,79.28
2018-05-16T05:28:52.858Z,78.89
2018-05-16T05:29:52.908Z,79.08
2018-05-16T05:31:45.908Z,78.74
2018-05-16T05:32:45.967Z,78.89
2018-05-16T05:34:38.966Z,78.17
2018-05-16T05:35:39.023Z,78.22
2018-05-16T05:37:32.023Z,78.36
2018-05-16T05:38:32.085Z,78.07
2018-05-16T05:40:25.071Z,77.78
2018-05-16T05:41:25.136Z,77.50
2018-05-16T05:43:18.198Z,77.31
2018-05-16T05:44:18.200Z,77.21
2018-05-16T05:46:11.197Z,77.40
2018-05-16T05:47:11.251Z,77.02
2018-05-16T05:49:04.254Z,77.11
2018-05-16T05:50:04.307Z,76.67
2018-05-16T05:51:57.323Z,76.96
2018-05-16T05:52:57.370Z,77.15
2018-05-16T05:54:50.368Z,77.09
2018-05-16T05:55:50.423Z,77.00
2018-05-16T05:57:43.424Z,76.75
2018-05-16T05:58:43.482Z,77.04
2018-05-16T06:00:36.471Z,76.46
2018-05-16T06:01:36.538Z,76.59
2018-05-16T06:03:29.538Z,76.34
2018-05-16T06:04:29.598Z,76.39
2018-05-16T06:06:22.591Z,75.75
2018-05-16T06:07:22.652Z,74.98
2018-05-16T06:09:15.654Z,75.11
2018-05-16T06:10:15.712Z,75.24
2018-05-16T06:12:08.703Z,74.88
2018-05-16T06:13:08.769Z,74.01
2018-05-16T06:15:01.776Z,71.97
2018-05-16T06:16:01.827Z,69.56
2018-05-16T06:17:56.338Z,68.21
2018-05-16T06:18:56.404Z,64.40
2018-05-16T06:20:49.403Z,62.37
2018-05-16T06:21:49.463Z,62.46
2018-05-16T06:23:42.470Z,66.69
2018-05-16T06:24:42.559Z,67.91
2018-05-16T06:26:35.531Z,70.13
2018-05-16T06:27:35.601Z,71.92
2018-05-16T06:29:28.603Z,72.47
2018-05-16T06:30:28.664Z,72.91
2018-05-16T06:32:21.669Z,73.88
2018-05-16T06:33:21.734Z,73.88
2018-05-16T06:35:14.743Z,74.16
2018-05-16T06:36:14.796Z,75.34
2018-05-16T06:38:07.794Z,67.24
2018-05-16T06:39:07.874Z,66.56
2018-05-16T06:41:00.866Z,65.69
2018-05-16T06:42:00.927Z,62.04
2018-05-16T06:43:53.953Z,55.39
2018-05-16T06:44:53.999Z,52.43
2018-05-16T06:46:47.001Z,48.02
2018-05-16T06:47:47.140Z,47.03
2018-05-16T06:49:40.085Z,47.13
2018-05-16T06:50:40.160Z,47.69
2018-05-16T06:52:33.157Z,47.86
2018-05-16T06:53:33.224Z,48.61
2018-05-16T06:55:26.238Z,48.83
2018-05-16T06:56:26.305Z,48.17
2018-05-16T06:58:19.310Z,47.69
2018-05-16T06:59:19.381Z,48.05
2018-05-16T07:01:12.406Z,46.44
2018-05-16T07:02:12.459Z,45.51
2018-05-16T07:04:05.497Z,43.39
2018-05-16T07:05:05.547Z,43.84
2018-05-16T07:06:58.572Z,46.77
2018-05-16T07:07:58.629Z,48.44
2018-05-16T07:09:51.668Z,55.58
2018-05-16T07:10:51.751Z,58.04
2018-05-16T07:12:44.748Z,64.34
2018-05-16T07:13:44.818Z,65.72
2018-05-16T07:15:37.838Z,67.75
2018-05-16T07:16:37.906Z,68.77
2018-05-16T07:18:30.910Z,70.00
2018-05-16T07:19:30.984Z,70.35
2018-05-16T07:21:23.994Z,70.98
2018-05-16T07:22:24.061Z,71.37
2018-05-16T07:24:17.065Z,72.39
2018-05-16T07:25:17.255Z,72.39
2018-05-16T07:27:10.147Z,72.97
2018-05-16T07:28:10.207Z,72.78
2018-05-16T07:30:03.219Z,72.59
2018-05-16T07:31:03.275Z,73.16
2018-05-16T07:32:56.286Z,73.36
2018-05-16T07:33:56.348Z,72.88
2018-05-16T07:35:49.354Z,73.84
2018-05-16T07:36:49.421Z,74.29
2018-05-16T07:38:42.429Z,73.84
2018-05-16T07:39:42.503Z,73.74
2018-05-16T07:41:35.504Z,74.26
2018-05-16T07:42:35.564Z,73.74
2018-05-16T07:44:28.566Z,74.22
2018-05-16T07:45:28.633Z,73.84
2018-05-16T07:47:21.646Z,74.13
2018-05-16T07:48:21.703Z,74.32
2018-05-16T07:50:14.704Z,74.41
2018-05-16T07:51:14.807Z,74.71
2018-05-16T07:53:07.776Z,74.71
2018-05-16T07:54:07.835Z,73.42
2018-05-16T07:56:00.883Z,73.71
2018-05-16T07:57:00.902Z,74.19
2018-05-16T07:58:53.910Z,73.71
2018-05-16T07:59:53.969Z,74.67
2018-05-16T08:01:46.975Z,74.48
2018-05-16T08:02:47.036Z,74.29
2018-05-16T08:04:40.030Z,74.67
2018-05-16T08:05:40.099Z,74.48
2018-05-16T08:07:33.109Z,74.86
2018-05-16T08:08:33.171Z,74.29
2018-05-16T08:10:26.730Z,74.03
2018-05-16T08:11:26.743Z,74.51
2018-05-16T08:13:19.747Z,73.46
2018-05-16T08:14:19.808Z,74.22
2018-05-16T08:16:12.824Z,72.72
2018-05-16T08:17:12.932Z,72.43
2018-05-16T08:19:05.900Z,71.31
2018-05-16T08:20:05.961Z,71.34
2018-05-16T08:21:58.965Z,71.12
2018-05-16T08:22:59.025Z,71.31
2018-05-16T08:24:52.025Z,71.34
2018-05-16T08:25:52.093Z,71.98
2018-05-16T08:27:45.107Z,72.47
2018-05-16T08:28:45.169Z,71.95
2018-05-16T08:30:38.175Z,72.72
2018-05-16T08:31:38.238Z,72.30
2018-05-16T08:33:31.247Z,72.68
2018-05-16T08:34:31.302Z,73.07
2018-05-16T08:36:24.305Z,72.68
2018-05-16T08:37:24.371Z,72.43
2018-05-16T08:39:17.384Z,71.31
2018-05-16T08:40:17.446Z,70.92
2018-05-16T08:42:10.465Z,71.70
2018-05-16T08:43:10.515Z,70.98
2018-05-16T08:45:03.524Z,70.02
2018-05-16T08:46:03.586Z,69.93
2018-05-16T08:47:56.632Z,69.87
2018-05-16T08:48:56.656Z,68.74
2018-05-16T08:50:49.728Z,67.20
2018-05-16T08:51:49.723Z,67.14
2018-05-16T08:53:42.767Z,61.63
2018-05-16T08:54:42.807Z,62.18
2018-05-16T08:56:35.804Z,64.69
2018-05-16T08:57:36.005Z,66.33
2018-05-16T08:59:28.885Z,66.46
2018-05-16T09:00:28.948Z,66.75
2018-05-16T09:02:21.954Z,67.10
2018-05-16T09:03:22.021Z,68.01
2018-05-16T09:05:15.030Z,66.27
2018-05-16T09:06:15.090Z,66.56
2018-05-16T09:08:08.113Z,67.33
2018-05-16T09:09:08.162Z,66.72
2018-05-16T09:11:01.175Z,67.49
2018-05-16T09:12:01.235Z,67.88
2018-05-16T09:13:54.237Z,68.55
2018-05-16T09:14:54.299Z,69.51
2018-05-16T09:16:47.302Z,69.71
2018-05-16T09:17:47.363Z,69.90
2018-05-16T09:19:40.386Z,68.45
2018-05-16T09:20:40.450Z,68.55
2018-05-16T09:22:33.454Z,67.49
2018-05-16T09:23:33.520Z,67.49
2018-05-16T09:25:26.525Z,68.93
2018-05-16T09:26:26.589Z,69.71
2018-05-16T09:28:19.588Z,69.51
2018-05-16T09:29:19.655Z,69.42
2018-05-16T09:31:12.662Z,69.23
2018-05-16T09:32:12.717Z,68.35
2018-05-16T09:34:05.770Z,68.26
2018-05-16T09:35:05.793Z,68.45
2018-05-16T09:36:58.794Z,68.39
2018-05-16T09:37:58.863Z,67.91
2018-05-16T09:39:51.870Z,68.29
2018-05-16T09:40:52.249Z,67.17
2018-05-16T09:42:44.944Z,66.88
2018-05-16T09:43:44.999Z,66.88
2018-05-16T09:45:38.038Z,67.23
2018-05-16T09:46:38.064Z,67.43
2018-05-16T09:48:31.076Z,67.27
2018-05-16T09:49:31.143Z,67.75
2018-05-16T09:51:24.211Z,67.55
2018-05-16T09:52:24.228Z,68.33
2018-05-16T09:54:17.241Z,69.20
2018-05-16T09:55:17.297Z,69.58
2018-05-16T09:57:10.369Z,67.46
2018-05-16T09:58:10.366Z,66.20
2018-05-16T10:00:03.378Z,67.30
2018-05-16T10:01:03.440Z,66.53
2018-05-16T10:02:56.440Z,66.46
2018-05-16T10:03:56.580Z,66.53
2018-05-16T10:05:49.526Z,66.53
2018-05-16T10:06:49.591Z,66.56
2018-05-16T10:08:42.597Z,65.98
2018-05-16T10:09:42.751Z,66.30
2018-05-16T10:11:35.673Z,63.40
2018-05-16T10:12:35.735Z,63.47
2018-05-16T10:14:28.765Z,64.47
2018-05-16T10:15:28.808Z,63.40
2018-05-16T10:17:21.823Z,63.79
2018-05-16T10:18:21.887Z,63.69
2018-05-16T10:20:15.031Z,64.08
2018-05-16T10:21:14.957Z,65.34
2018-05-16T10:23:07.967Z,64.37
2018-05-16T10:24:08.036Z,64.08
2018-05-16T10:26:01.048Z,64.69
2018-05-16T10:27:01.137Z,63.24
2018-05-16T10:28:54.124Z,63.92
2018-05-16T10:29:54.362Z,63.63
2018-05-16T10:31:47.197Z,64.21
2018-05-16T10:32:47.259Z,62.95
2018-05-16T10:34:40.269Z,63.14
2018-05-16T10:35:40.331Z,62.73
2018-05-16T10:37:33.362Z,63.43
2018-05-16T10:38:33.406Z,63.92
2018-05-16T10:40:26.423Z,62.66
2018-05-16T10:41:26.518Z,63.11
2018-05-16T10:43:19.497Z,63.98
2018-05-16T10:44:19.562Z,63.69
2018-05-16T10:46:12.569Z,64.56
2018-05-16T10:47:12.666Z,64.66
2018-05-16T10:49:05.654Z,63.92
2018-05-16T10:50:05.702Z,64.53
2018-05-16T10:51:58.738Z,63.37
2018-05-16T10:52:58.801Z,62.88
2018-05-16T10:54:51.790Z,62.69
2018-05-16T10:55:51.965Z,61.24
2018-05-16T10:57:44.889Z,62.30
2018-05-16T10:58:44.927Z,61.82
2018-05-16T11:00:38.027Z,62.11
2018-05-16T11:01:38.013Z,60.88
2018-05-16T11:03:31.391Z,60.78
2018-05-16T11:04:31.075Z,59.43
2018-05-16T11:06:24.110Z,59.14
2018-05-16T11:07:24.160Z,59.43
2018-05-16T11:09:17.283Z,59.05
2018-05-16T11:10:17.241Z,60.95
2018-05-16T11:12:10.238Z,63.27
2018-05-16T11:13:10.307Z,63.08
2018-05-16T11:15:03.325Z,62.72
2018-05-16T11:16:03.373Z,60.75
2018-05-16T11:17:56.511Z,61.27
2018-05-16T11:18:56.518Z,60.75
2018-05-16T11:20:49.465Z,61.53
2018-05-16T11:21:49.534Z,60.85
2018-05-16T11:23:42.562Z,61.76
2018-05-16T11:24:42.606Z,60.11
2018-05-16T11:26:36.172Z,59.14
2018-05-16T11:27:36.184Z,58.17
2018-05-16T11:29:29.208Z,58.75
2018-05-16T11:30:29.265Z,59.53
2018-05-16T11:32:22.307Z,58.69
2018-05-16T11:33:22.334Z,60.04
2018-05-16T11:35:15.402Z,60.52
2018-05-16T11:36:15.410Z,58.69
2018-05-16T11:38:08.443Z,58.88
2018-05-16T11:39:08.512Z,58.98
2018-05-16T11:41:01.508Z,58.39
2018-05-16T11:42:01.582Z,57.81
2018-05-16T11:43:54.568Z,57.04
2018-05-16T11:44:54.650Z,55.58
2018-05-16T11:46:47.638Z,53.43
2018-05-16T11:47:47.700Z,54.39
2018-05-16T11:49:40.737Z,57.20
2018-05-16T11:50:40.809Z,55.27
2018-05-16T11:52:33.789Z,56.02
2018-05-16T11:53:33.850Z,56.82
2018-05-16T11:55:26.872Z,55.92
2018-05-16T11:56:26.923Z,56.02
2018-05-16T11:58:19.932Z,57.46
2018-05-16T11:59:20.041Z,56.40
2018-05-16T12:01:13.090Z,57.56
2018-05-16T12:02:13.109Z,58.27
2018-05-16T12:04:06.105Z,58.27
2018-05-16T12:05:06.157Z,59.33
2018-05-16T12:06:59.178Z,58.04
2018-05-16T12:07:59.219Z,59.31
2018-05-16T12:09:52.261Z,58.53
2018-05-16T12:10:52.305Z,58.63
2018-05-16T12:12:45.331Z,59.72
2018-05-16T12:13:45.381Z,60.11
2018-05-16T12:15:38.411Z,59.82
2018-05-16T12:16:38.481Z,60.11
2018-05-16T12:18:31.527Z,62.27
2018-05-16T12:19:31.552Z,62.92
2018-05-16T12:21:24.547Z,61.46
2018-05-16T12:22:24.610Z,61.66
2018-05-16T12:24:17.673Z,62.14
2018-05-16T12:25:17.729Z,62.24
2018-05-16T12:27:10.705Z,62.24
2018-05-16T12:28:10.755Z,63.11
2018-05-16T12:30:03.784Z,63.40
2018-05-16T12:31:03.838Z,63.49
2018-05-16T12:32:56.861Z,63.21
2018-05-16T12:33:56.906Z,63.49
2018-05-16T12:35:49.914Z,61.30
2018-05-16T12:36:49.980Z,60.30
2018-05-16T12:38:43.004Z,62.27
2018-05-16T12:39:43.066Z,62.75
2018-05-16T12:41:36.084Z,62.24
2018-05-16T12:42:36.154Z,63.49
2018-05-16T12:44:29.210Z,63.98
2018-05-16T12:45:29.230Z,64.07
2018-05-16T12:47:22.206Z,64.24
2018-05-16T12:48:22.287Z,65.01
2018-05-16T12:50:15.287Z,64.34
2018-05-16T12:51:15.351Z,63.98
2018-05-16T12:53:08.458Z,64.82
2018-05-16T12:54:08.426Z,65.59
2018-05-16T12:56:01.512Z,63.79
2018-05-16T12:57:01.491Z,65.72
2018-05-16T12:58:54.815Z,65.63
2018-05-16T12:59:54.574Z,67.18
2018-05-16T13:01:47.693Z,66.56
2018-05-16T13:02:47.676Z,66.56
2018-05-16T13:04:40.651Z,66.27
2018-05-16T13:05:40.718Z,66.37
2018-05-16T13:07:33.955Z,66.27
2018-05-16T13:08:33.799Z,67.63
2018-05-16T13:10:26.811Z,67.14
2018-05-16T13:11:26.881Z,67.63
2018-05-16T13:13:19.988Z,67.72
2018-05-16T13:14:19.998Z,67.72
2018-05-16T13:16:12.958Z,67.63
2018-05-16T13:17:13.052Z,66.66
2018-05-16T13:19:06.079Z,67.46
2018-05-16T13:20:06.128Z,67.43
2018-05-16T13:21:59.131Z,67.91
2018-05-16T13:22:59.153Z,68.69
2018-05-16T13:24:52.165Z,68.69
2018-05-16T13:25:52.261Z,69.08
2018-05-16T13:27:45.260Z,69.46
2018-05-16T13:28:45.327Z,69.14
2018-05-16T13:30:38.349Z,69.08
2018-05-16T13:31:38.393Z,68.69
2018-05-16T13:33:31.402Z,68.69
2018-05-16T13:34:31.468Z,68.69
2018-05-16T13:36:24.494Z,67.95
2018-05-16T13:37:24.527Z,68.24
2018-05-16T13:39:17.532Z,67.56
2018-05-16T13:40:17.650Z,66.69
2018-05-16T13:42:10.628Z,66.40
2018-05-16T13:43:10.697Z,66.40
2018-05-16T13:45:03.678Z,68.05
2018-05-16T13:46:03.747Z,68.33
2018-05-16T13:47:56.761Z,67.18
2018-05-16T13:48:56.844Z,67.27
2018-05-16T13:50:49.870Z,67.40
2018-05-16T13:51:49.893Z,66.92
2018-05-16T13:53:42.925Z,65.66
2018-05-16T13:54:43.008Z,67.76
2018-05-16T13:56:36.010Z,69.85
2018-05-16T13:57:36.040Z,72.56
2018-05-16T13:59:29.065Z,72.91
2018-05-16T14:00:29.115Z,72.52
2018-05-16T14:02:22.128Z,72.78
2018-05-16T14:03:22.179Z,72.88
2018-05-16T14:05:15.183Z,72.64
2018-05-16T14:06:15.252Z,73.13
2018-05-16T14:08:08.269Z,71.26
2018-05-16T14:09:08.321Z,71.06
2018-05-16T14:11:01.343Z,69.97
2018-05-16T14:12:01.446Z,69.78
2018-05-16T14:13:54.402Z,71.19
2018-05-16T14:14:54.458Z,68.39
2018-05-16T14:16:47.632Z,70.38
2018-05-16T14:17:47.534Z,68.84
2018-05-16T14:19:40.696Z,69.84
2018-05-16T14:20:40.600Z,70.70
2018-05-16T14:22:33.700Z,70.03
2018-05-16T14:23:33.671Z,70.22
2018-05-16T14:25:26.733Z,71.42
2018-05-16T14:26:26.756Z,71.61
2018-05-16T14:28:19.806Z,70.26
2018-05-16T14:29:19.802Z,71.22
2018-05-16T14:31:12.801Z,71.12
2018-05-16T14:32:12.871Z,70.64
2018-05-16T14:34:05.875Z,71.34
2018-05-16T14:35:05.939Z,73.57
2018-05-16T14:36:58.943Z,72.37
2018-05-16T14:37:59.008Z,73.91
2018-05-16T14:39:52.016Z,70.86
2018-05-16T14:40:52.071Z,72.31
2018-05-16T14:42:45.190Z,72.60
2018-05-16T14:43:45.178Z,71.73
2018-05-16T14:45:38.137Z,71.96
2018-05-16T14:46:38.199Z,72.73
2018-05-16T14:48:31.227Z,72.00
2018-05-16T14:49:31.280Z,72.77
2018-05-16T14:51:24.280Z,71.32
2018-05-16T14:52:24.346Z,71.22
2018-05-16T14:54:17.360Z,72.28
2018-05-16T14:55:17.416Z,71.90
2018-05-16T14:57:10.426Z,73.38
2018-05-16T14:58:10.484Z,73.67
2018-05-16T15:00:03.494Z,72.71
2018-05-16T15:01:03.553Z,72.71
2018-05-16T15:02:56.573Z,72.13
2018-05-16T15:03:56.700Z,71.55
2018-05-16T15:05:49.642Z,72.13
2018-05-16T15:06:49.716Z,71.36
2018-05-16T15:08:42.718Z,72.13
2018-05-16T15:09:42.773Z,71.94
2018-05-16T15:11:35.788Z,72.71
2018-05-16T15:12:35.854Z,72.03
2018-05-16T15:14:28.862Z,71.84
2018-05-16T15:15:28.923Z,72.22
2018-05-16T15:17:21.920Z,73.19
2018-05-16T15:18:21.988Z,72.22
2018-05-16T15:20:15.035Z,72.42
2018-05-16T15:21:15.084Z,71.55
2018-05-16T15:23:08.070Z,73.38
2018-05-16T15:24:08.134Z,72.90
2018-05-16T15:26:01.212Z,71.74
2018-05-16T15:27:01.217Z,71.55
2018-05-16T15:28:54.233Z,71.55
2018-05-16T15:29:54.278Z,71.36
2018-05-16T15:31:47.281Z,71.64
2018-05-16T15:32:47.343Z,71.45
2018-05-16T15:34:40.351Z,71.58
2018-05-16T15:35:40.410Z,71.68
2018-05-16T15:37:33.413Z,71.30
2018-05-16T15:38:33.486Z,71.20
2018-05-16T15:40:26.507Z,71.39
2018-05-16T15:41:26.566Z,71.74
2018-05-16T15:43:19.564Z,71.36
2018-05-16T15:44:19.631Z,71.26
2018-05-16T15:46:12.638Z,71.36
2018-05-16T15:47:12.698Z,71.84
2018-05-16T15:49:06.222Z,71.64
2018-05-16T15:50:06.271Z,71.26
2018-05-16T15:51:59.796Z,71.78
2018-05-16T15:52:59.845Z,71.78
2018-05-16T15:54:53.361Z,71.64
2018-05-16T15:55:53.419Z,70.68
2018-05-16T15:57:46.922Z,71.45
2018-05-16T15:58:46.995Z,71.45
2018-05-16T16:00:40.007Z,71.55
2018-05-16T16:01:40.063Z,72.32
2018-05-16T16:03:33.059Z,71.61
2018-05-16T16:04:33.131Z,71.70
2018-05-16T16:06:26.132Z,72.09
2018-05-16T16:07:26.195Z,72.63
2018-05-16T16:09:19.220Z,72.44
2018-05-16T16:10:19.286Z,72.34
2018-05-16T16:12:12.297Z,72.25
2018-05-16T16:13:12.358Z,71.92
2018-05-16T16:15:05.355Z,72.60
2018-05-16T16:16:05.422Z,71.92
2018-05-16T16:17:58.446Z,72.60
2018-05-16T16:18:58.508Z,72.79
2018-05-16T16:20:51.518Z,72.95
2018-05-16T16:21:51.577Z,72.08
2018-05-16T16:23:44.580Z,72.18
2018-05-16T16:24:44.644Z,72.47
2018-05-16T16:26:37.649Z,72.47
2018-05-16T16:27:37.706Z,72.95
2018-05-16T16:29:30.708Z,71.31
2018-05-16T16:30:30.764Z,70.25
2018-05-16T16:32:23.781Z,68.52
2018-05-16T16:33:23.839Z,69.77
2018-05-16T16:35:16.836Z,70.09
2018-05-16T16:36:16.904Z,69.71
2018-05-16T16:38:09.906Z,68.07
2018-05-16T16:39:10.026Z,66.43
2018-05-16T16:41:02.971Z,67.30
2018-05-16T16:42:03.035Z,68.45
2018-05-16T16:43:56.051Z,69.80
2018-05-16T16:44:56.191Z,70.28
2018-05-16T16:46:49.121Z,70.28
2018-05-16T16:47:49.177Z,71.83
2018-05-16T16:49:42.175Z,71.64
2018-05-16T16:50:42.244Z,72.02
2018-05-16T16:52:35.250Z,72.69
2018-05-16T16:53:35.309Z,72.18
2018-05-16T16:55:28.308Z,72.12
2018-05-16T16:56:28.380Z,72.66
2018-05-16T16:58:21.383Z,72.60
2018-05-16T16:59:21.444Z,72.69
2018-05-16T17:01:14.445Z,72.27
2018-05-16T17:02:14.516Z,72.66
2018-05-16T17:04:07.512Z,72.56
2018-05-16T17:05:07.574Z,72.27
2018-05-16T17:07:00.596Z,72.56
2018-05-16T17:08:00.637Z,72.47
2018-05-16T17:09:53.643Z,72.85
2018-05-16T17:10:53.708Z,72.66
2018-05-16T17:12:46.731Z,72.27
2018-05-16T17:13:46.780Z,72.85
2018-05-16T17:15:39.784Z,72.18
2018-05-16T17:16:39.849Z,72.66
2018-05-16T17:18:32.854Z,72.47
2018-05-16T17:19:32.916Z,72.47
2018-05-16T17:21:25.915Z,72.56
2018-05-16T17:22:25.978Z,72.47
2018-05-16T17:24:18.985Z,72.75
2018-05-16T17:25:19.050Z,73.14
2018-05-16T17:27:12.058Z,72.95
2018-05-16T17:28:12.122Z,73.05
2018-05-16T17:30:05.149Z,73.82
2018-05-16T17:31:05.504Z,73.24
2018-05-16T17:32:58.226Z,72.53
2018-05-16T17:33:58.273Z,72.49
2018-05-16T17:35:51.292Z,73.07
2018-05-16T17:36:51.340Z,72.59
2018-05-16T17:38:44.347Z,72.55
2018-05-16T17:39:44.404Z,72.36
2018-05-16T17:41:37.408Z,73.13
2018-05-16T17:42:37.471Z,72.90
2018-05-16T17:44:30.476Z,73.19
2018-05-16T17:45:30.539Z,73.57
2018-05-16T17:47:23.536Z,73.47
2018-05-16T17:48:23.602Z,73.57
2018-05-16T17:50:16.604Z,73.28
2018-05-16T17:51:16.664Z,73.35
2018-05-16T17:53:09.678Z,73.35
2018-05-16T17:54:09.746Z,72.77
2018-05-16T17:56:02.758Z,73.35
2018-05-16T17:57:02.818Z,73.73
2018-05-16T17:58:55.827Z,73.44
2018-05-16T17:59:55.891Z,73.54
2018-05-16T18:01:48.891Z,73.92
2018-05-16T18:02:48.956Z,73.69
2018-05-16T18:04:41.960Z,73.60
2018-05-16T18:05:42.021Z,74.08
2018-05-16T18:07:35.019Z,74.08
2018-05-16T18:08:35.079Z,73.98
2018-05-16T18:10:28.107Z,73.50
2018-05-16T18:11:28.147Z,73.94
2018-05-16T18:13:21.145Z,73.75
2018-05-16T18:14:21.209Z,73.75
2018-05-16T18:16:14.211Z,73.85
2018-05-16T18:17:14.318Z,73.75
2018-05-16T18:19:07.271Z,74.04
2018-05-16T18:20:07.332Z,73.94
2018-05-16T18:22:00.322Z,73.94
2018-05-16T18:23:00.388Z,74.19
2018-05-16T18:24:53.388Z,73.72
2018-05-16T18:25:53.455Z,73.81
2018-05-16T18:27:46.439Z,74.29
2018-05-16T18:28:46.504Z,74.58
2018-05-16T18:30:39.508Z,74.06
2018-05-16T18:31:39.566Z,74.58
2018-05-16T18:33:32.564Z,74.44
2018-05-16T18:34:32.623Z,74.06